createdAt,value
2018-11-01T00:00:24.944Z,13.45
2018-11-01T00:02:54.059Z,14.10
2018-11-01T00:05:23.135Z,18.40
2018-11-01T00:07:52.403Z,27.55
2018-11-01T00:10:21.557Z,28.15
2018-11-01T00:12:51.026Z,26.75
2018-11-01T00:15:20.339Z,24.67
2018-11-01T00:17:49.439Z,25.60
2018-11-01T00:20:19.142Z,23.35
2018-11-01T00:22:48.406Z,20.10
2018-11-01T00:25:19.031Z,20.10
2018-11-01T00:27:48.036Z,19.73
2018-11-01T00:30:17.235Z,19.37
2018-11-01T00:32:46.404Z,21.62
2018-11-01T00:35:15.522Z,23.40
2018-11-01T00:37:44.755Z,25.10
2018-11-01T00:40:14.807Z,26.55
2018-11-01T00:42:44.883Z,25.48
2018-11-01T00:45:13.967Z,23.73
2018-11-01T00:47:43.023Z,16.93
2018-11-01T00:50:13.394Z,16.37
2018-11-01T00:52:42.930Z,17.67
2018-11-01T00:55:13.074Z,15.28
2018-11-01T00:57:42.743Z,14.23
2018-11-01T01:00:13.670Z,13.43
2018-11-01T01:02:43.089Z,19.73
2018-11-01T01:05:12.882Z,17.15
2018-11-01T01:07:41.819Z,18.30
2018-11-01T01:10:13.398Z,15.13
2018-11-01T01:12:42.941Z,15.28
2018-11-01T01:15:12.260Z,17.20
2018-11-01T01:17:41.402Z,17.70
2018-11-01T01:20:13.461Z,17.50
2018-11-01T01:22:43.858Z,16.60
2018-11-01T01:25:15.469Z,16.67
2018-11-01T01:27:44.724Z,16.05
2018-11-01T01:30:16.082Z,13.25
2018-11-01T01:32:45.738Z,13.08
2018-11-01T01:35:15.163Z,14.53
2018-11-01T01:37:44.478Z,14.83
2018-11-01T01:40:13.751Z,15.08
2018-11-01T01:42:48.208Z,14.80
2018-11-01T01:45:17.315Z,16.02
2018-11-01T01:47:46.322Z,15.83
2018-11-01T01:50:16.458Z,16.37
2018-11-01T01:52:46.118Z,15.03
2018-11-01T01:55:15.615Z,15.05
2018-11-01T01:57:44.697Z,14.35
2018-11-01T02:00:16.479Z,15.05
2018-11-01T02:02:47.583Z,14.05
2018-11-01T02:05:17.074Z,12.73
2018-11-01T02:07:46.227Z,10.98
2018-11-01T02:10:16.393Z,9.95
2018-11-01T02:12:45.468Z,11.40
2018-11-01T02:15:16.595Z,10.05
2018-11-01T02:17:46.027Z,10.78
2018-11-01T02:20:16.566Z,11.15
2018-11-01T02:22:46.270Z,12.07
2018-11-01T02:25:15.437Z,12.30
2018-11-01T02:27:49.526Z,12.43
2018-11-01T02:30:19.119Z,13.75
2018-11-01T02:32:48.267Z,15.55
2018-11-01T02:35:18.779Z,16.25
2018-11-01T02:37:48.041Z,15.98
2018-11-01T02:40:17.522Z,17.05
2018-11-01T02:42:47.106Z,17.87
2018-11-01T02:45:16.499Z,16.57
2018-11-01T02:47:45.615Z,17.73
2018-11-01T02:50:15.101Z,17.65
2018-11-01T02:52:44.262Z,16.95
2018-11-01T02:55:13.604Z,16.80
2018-11-01T02:57:42.759Z,17.42
2018-11-01T03:00:14.458Z,17.35
2018-11-01T03:02:43.478Z,17.17
2018-11-01T03:05:13.184Z,18.10
2018-11-01T03:07:42.498Z,17.17
2018-11-01T03:10:13.069Z,16.70
2018-11-01T03:12:42.446Z,17.95
2018-11-01T03:15:12.625Z,17.48
2018-11-01T03:17:41.785Z,18.05
2018-11-01T03:20:11.851Z,18.73
2018-11-01T03:22:40.992Z,18.10
2018-11-01T03:25:10.604Z,18.87
2018-11-01T03:27:39.707Z,18.07
2018-11-01T03:30:09.174Z,17.30
2018-11-01T03:32:38.974Z,17.75
2018-11-01T03:35:09.151Z,17.25
2018-11-01T03:37:38.242Z,17.98
2018-11-01T03:40:08.608Z,16.73
2018-11-01T03:42:38.117Z,17.35
2018-11-01T03:45:08.503Z,18.52
2018-11-01T03:47:37.842Z,17.20
2018-11-01T03:50:07.019Z,16.15
2018-11-01T03:52:36.347Z,16.40
2018-11-01T03:55:06.431Z,14.98
2018-11-01T03:57:35.807Z,15.25
2018-11-01T04:00:06.415Z,15.35
2018-11-01T04:02:35.607Z,16.30
2018-11-01T04:05:04.786Z,17.20
2018-11-01T04:07:33.991Z,16.00
2018-11-01T04:10:02.850Z,15.60
2018-11-01T04:12:32.104Z,16.23
2018-11-01T04:15:01.547Z,16.15
2018-11-01T04:17:30.787Z,16.45
2018-11-01T04:19:59.927Z,16.95
2018-11-01T04:22:29.122Z,17.45
2018-11-01T04:24:58.224Z,14.95
2018-11-01T04:27:27.619Z,16.10
2018-11-01T04:29:56.724Z,15.45
2018-11-01T04:32:25.987Z,14.80
2018-11-01T04:34:55.090Z,16.75
2018-11-01T04:37:24.407Z,15.58
2018-11-01T04:39:53.879Z,15.40
2018-11-01T04:42:22.955Z,17.02
2018-11-01T04:44:52.256Z,16.37
2018-11-01T04:47:21.436Z,17.60
2018-11-01T04:49:50.506Z,18.05
2018-11-01T04:52:19.895Z,18.07
2018-11-01T04:54:49.082Z,19.10
2018-11-01T04:57:18.064Z,18.55
2018-11-01T04:59:47.367Z,18.25
2018-11-01T05:02:16.554Z,18.55
2018-11-01T05:04:45.660Z,17.45
2018-11-01T05:07:14.963Z,19.42
2018-11-01T05:09:44.379Z,20.05
2018-11-01T05:12:13.559Z,19.98
2018-11-01T05:14:42.606Z,20.88
2018-11-01T05:17:11.963Z,19.62
2018-11-01T05:19:41.158Z,20.80
2018-11-01T05:22:10.379Z,23.02
2018-11-01T05:24:39.499Z,19.55
2018-11-01T05:27:09.025Z,19.52
2018-11-01T05:29:38.395Z,19.37
2018-11-01T05:32:07.666Z,18.67
2018-11-01T05:34:36.890Z,18.80
2018-11-01T05:37:06.572Z,20.85
2018-11-01T05:39:35.708Z,20.12
2018-11-01T05:42:04.842Z,19.77
2018-11-01T05:44:33.719Z,18.30
2018-11-01T05:47:03.028Z,18.92
2018-11-01T05:49:32.280Z,18.12
2018-11-01T05:52:01.574Z,17.60
2018-11-01T05:54:31.063Z,19.30
2018-11-01T05:57:00.073Z,19.17
2018-11-01T05:59:29.442Z,19.35
2018-11-01T06:02:00.598Z,19.15
2018-11-01T06:04:29.987Z,16.80
2018-11-01T06:06:59.050Z,18.02
2018-11-01T06:09:30.099Z,17.73
2018-11-01T06:11:59.207Z,17.27
2018-11-01T06:14:28.696Z,19.48
2018-11-01T06:16:58.189Z,17.67
2018-11-01T06:19:27.478Z,20.23
2018-11-01T06:21:56.911Z,19.02
2018-11-01T06:24:26.482Z,17.75
2018-11-01T06:26:56.444Z,14.95
2018-11-01T06:29:25.880Z,19.10
2018-11-01T06:31:55.551Z,19.95
2018-11-01T06:34:32.445Z,18.82
2018-11-01T06:37:02.556Z,21.07
2018-11-01T06:39:32.184Z,19.40
2018-11-01T06:42:01.388Z,18.87
2018-11-01T06:44:30.883Z,21.15
2018-11-01T06:46:59.962Z,18.62
2018-11-01T06:49:29.114Z,17.05
2018-11-01T06:51:58.906Z,17.70
2018-11-01T06:54:30.925Z,18.75
2018-11-01T06:57:00.785Z,17.67
2018-11-01T06:59:30.264Z,18.48
2018-11-01T07:01:59.398Z,18.75
2018-11-01T07:04:28.665Z,18.92
2018-11-01T07:06:57.898Z,18.00
2018-11-01T07:09:27.486Z,19.55
2018-11-01T07:11:57.106Z,19.27
2018-11-01T07:14:26.177Z,18.12
2018-11-01T07:16:55.515Z,19.65
2018-11-01T07:19:24.709Z,20.48
2018-11-01T07:21:53.741Z,20.30
2018-11-01T07:24:23.220Z,19.77
2018-11-01T07:26:52.551Z,18.40
2018-11-01T07:29:21.759Z,20.82
2018-11-01T07:31:51.048Z,19.40
2018-11-01T07:34:20.034Z,19.42
2018-11-01T07:36:49.403Z,19.77
2018-11-01T07:39:18.562Z,19.25
2018-11-01T07:41:47.743Z,19.15
2018-11-01T07:44:16.949Z,20.90
2018-11-01T07:46:46.238Z,20.08
2018-11-01T07:49:15.430Z,18.48
2018-11-01T07:51:44.713Z,20.45
2018-11-01T07:54:14.142Z,23.27
2018-11-01T07:56:43.310Z,21.02
2018-11-01T07:59:12.387Z,21.17
2018-11-01T08:01:41.667Z,21.02
2018-11-01T08:04:10.911Z,21.93
2018-11-01T08:06:39.940Z,24.35
2018-11-01T08:09:10.410Z,21.12
2018-11-01T08:11:40.057Z,20.50
2018-11-01T08:14:09.512Z,20.97
2018-11-01T08:16:38.787Z,22.90
2018-11-01T08:19:08.547Z,22.15
2018-11-01T08:21:37.786Z,22.50
2018-11-01T08:24:07.098Z,22.13
2018-11-01T08:26:36.226Z,23.47
2018-11-01T08:29:05.385Z,23.60
2018-11-01T08:31:34.668Z,23.30
2018-11-01T08:34:03.882Z,22.10
2018-11-01T08:36:33.085Z,21.23
2018-11-01T08:39:02.526Z,21.97
2018-11-01T08:41:31.671Z,22.48
2018-11-01T08:44:00.654Z,22.87
2018-11-01T08:46:29.896Z,23.70
2018-11-01T08:48:59.163Z,23.85
2018-11-01T08:51:28.403Z,25.12
2018-11-01T08:53:57.787Z,24.77
2018-11-01T08:56:27.074Z,24.82
2018-11-01T08:58:56.291Z,22.52
2018-11-01T09:01:25.495Z,22.93
2018-11-01T09:03:54.544Z,22.40
2018-11-01T09:06:23.592Z,23.67
2018-11-01T09:08:53.487Z,26.23
2018-11-01T09:11:22.333Z,24.67
2018-11-01T09:13:52.023Z,25.65
2018-11-01T09:16:21.431Z,24.35
2018-11-01T09:18:50.458Z,23.32
2018-11-01T09:21:19.662Z,21.27
2018-11-01T09:23:48.793Z,23.00
2018-11-01T09:26:17.642Z,23.70
2018-11-01T09:28:46.785Z,25.00
2018-11-01T09:31:15.963Z,23.77
2018-11-01T09:33:45.204Z,22.22
2018-11-01T09:36:14.245Z,24.00
2018-11-01T09:38:43.275Z,22.67
2018-11-01T09:41:12.405Z,21.75
2018-11-01T09:43:41.769Z,23.35
2018-11-01T09:46:11.212Z,22.75
2018-11-01T09:48:40.122Z,20.72
2018-11-01T09:51:09.210Z,21.25
2018-11-01T09:53:38.264Z,20.40
2018-11-01T09:56:07.389Z,20.90
2018-11-01T09:58:37.330Z,21.65
2018-11-01T10:01:06.456Z,22.48
2018-11-01T10:03:35.469Z,22.98
2018-11-01T10:06:04.570Z,22.45
2018-11-01T10:08:33.838Z,22.52
2018-11-01T10:11:03.118Z,22.67
2018-11-01T10:13:32.375Z,23.38
2018-11-01T10:16:01.653Z,24.27
2018-11-01T10:18:31.405Z,22.85
2018-11-01T10:21:00.232Z,23.85
2018-11-01T10:23:29.438Z,23.42
2018-11-01T10:25:58.993Z,23.12
2018-11-01T10:28:27.990Z,24.00
2018-11-01T10:30:57.321Z,23.83
2018-11-01T10:33:26.474Z,24.43
2018-11-01T10:35:55.886Z,24.43
2018-11-01T10:38:25.091Z,23.50
2018-11-01T10:40:54.477Z,23.85
2018-11-01T10:43:23.486Z,23.07
2018-11-01T10:45:52.578Z,24.47
2018-11-01T10:48:21.835Z,26.75
2018-11-01T10:50:50.762Z,24.47
2018-11-01T10:53:19.866Z,24.90
2018-11-01T10:55:49.034Z,24.15
2018-11-01T10:58:18.146Z,24.10
2018-11-01T11:00:52.671Z,24.87
2018-11-01T11:03:21.474Z,25.90
2018-11-01T11:05:50.266Z,24.52
2018-11-01T11:08:19.341Z,26.48
2018-11-01T11:10:48.372Z,24.15
2018-11-01T11:13:17.397Z,22.82
2018-11-01T11:15:46.347Z,20.75
2018-11-01T11:18:15.535Z,21.93
2018-11-01T11:20:44.610Z,24.00
2018-11-01T11:23:13.648Z,23.92
2018-11-01T11:25:42.962Z,23.35
2018-11-01T11:28:11.986Z,24.75
2018-11-01T11:30:41.172Z,20.30
2018-11-01T11:33:10.239Z,20.90
2018-11-01T11:35:39.546Z,19.60
2018-11-01T11:38:08.843Z,18.50
2018-11-01T11:40:37.827Z,20.50
2018-11-01T11:43:07.343Z,19.20
2018-11-01T11:45:36.070Z,19.23
2018-11-01T11:48:05.815Z,17.87
2018-11-01T11:50:34.866Z,16.02
2018-11-01T11:53:04.134Z,16.97
2018-11-01T11:55:32.967Z,16.62
2018-11-01T11:58:02.027Z,15.08
2018-11-01T12:00:31.094Z,16.40
2018-11-01T12:03:01.094Z,14.83
2018-11-01T12:05:30.429Z,14.13
2018-11-01T12:07:59.451Z,14.47
2018-11-01T12:10:29.031Z,15.98
2018-11-01T12:12:58.039Z,16.10
2018-11-01T12:15:27.446Z,16.48
2018-11-01T12:17:56.336Z,14.98
2018-11-01T12:20:25.431Z,12.47
2018-11-01T12:22:54.902Z,12.75
2018-11-01T12:25:24.090Z,13.03
2018-11-01T12:27:56.271Z,13.75
2018-11-01T12:30:25.298Z,13.80
2018-11-01T12:32:54.343Z,13.48
2018-11-01T12:35:23.405Z,13.38
2018-11-01T12:37:52.486Z,13.35
2018-11-01T12:40:21.671Z,12.33
2018-11-01T12:42:50.846Z,12.30
2018-11-01T12:45:20.274Z,12.53
2018-11-01T12:47:49.877Z,11.78
2018-11-01T12:50:18.825Z,13.18
2018-11-01T12:52:47.736Z,11.95
2018-11-01T12:55:17.411Z,12.03
2018-11-01T12:57:47.970Z,13.10
2018-11-01T13:00:17.095Z,10.75
2018-11-01T13:02:45.962Z,14.60
2018-11-01T13:05:15.496Z,30.77
2018-11-01T13:07:44.614Z,14.23
2018-11-01T13:10:13.639Z,11.68
2018-11-01T13:12:43.296Z,11.73
2018-11-01T13:15:12.926Z,12.25
2018-11-01T13:17:42.130Z,12.63
2018-11-01T13:20:11.941Z,11.63
2018-11-01T13:22:40.960Z,12.58
2018-11-01T13:25:12.850Z,13.30
2018-11-01T13:27:44.017Z,13.53
2018-11-01T13:30:15.927Z,15.50
2018-11-01T13:32:46.055Z,13.80
2018-11-01T13:35:17.663Z,14.75
2018-11-01T13:37:47.332Z,13.40
2018-11-01T13:40:16.671Z,15.13
2018-11-01T13:42:47.574Z,14.63
2018-11-01T13:45:18.783Z,14.38
2018-11-01T13:47:49.172Z,14.60
2018-11-01T13:50:18.223Z,14.18
2018-11-01T13:52:49.122Z,15.75
2018-11-01T13:55:18.135Z,14.05
2018-11-01T13:57:48.038Z,15.25
2018-11-01T14:00:17.228Z,13.80
2018-11-01T14:02:46.503Z,14.45
2018-11-01T14:05:17.809Z,13.98
2018-11-01T14:07:47.788Z,14.60
2018-11-01T14:10:17.195Z,13.50
2018-11-01T14:12:46.195Z,14.40
2018-11-01T14:15:15.639Z,14.00
2018-11-01T14:17:44.387Z,14.93
2018-11-01T14:20:13.965Z,14.47
2018-11-01T14:22:43.112Z,13.53
2018-11-01T14:25:12.883Z,12.20
2018-11-01T14:27:42.372Z,13.30
2018-11-01T14:30:14.801Z,13.53
2018-11-01T14:32:43.979Z,14.38
2018-11-01T14:35:13.407Z,13.15
2018-11-01T14:37:42.563Z,11.35
2018-11-01T14:40:12.918Z,11.83
2018-11-01T14:42:42.220Z,11.73
2018-11-01T14:45:12.492Z,10.55
2018-11-01T14:47:42.001Z,10.05
2018-11-01T14:50:11.674Z,10.80
2018-11-01T14:52:41.072Z,9.63
2018-11-01T14:55:11.628Z,8.60
2018-11-01T14:57:40.657Z,7.92
2018-11-01T15:00:09.790Z,8.73
2018-11-01T15:02:38.947Z,7.00
2018-11-01T15:05:08.639Z,6.53
2018-11-01T15:07:37.714Z,6.53
2018-11-01T15:10:08.751Z,7.40
2018-11-01T15:12:37.982Z,6.80
2018-11-01T15:15:08.036Z,6.40
2018-11-01T15:17:37.412Z,6.17
2018-11-01T15:20:06.587Z,6.25
2018-11-01T15:22:35.657Z,7.08
2018-11-01T15:25:04.670Z,4.85
2018-11-01T15:27:33.845Z,5.87
2018-11-01T15:30:03.237Z,5.40
2018-11-01T15:32:32.323Z,5.72
2018-11-01T15:35:01.453Z,5.12
2018-11-01T15:37:30.708Z,5.67
2018-11-01T15:40:00.117Z,4.33
2018-11-01T15:42:29.179Z,4.45
2018-11-01T15:44:58.427Z,5.62
2018-11-01T15:47:27.813Z,4.78
2018-11-01T15:49:56.942Z,4.95
2018-11-01T15:52:26.272Z,4.85
2018-11-01T15:54:55.570Z,4.55
2018-11-01T15:57:24.760Z,5.08
2018-11-01T15:59:53.843Z,4.75
2018-11-01T16:02:23.004Z,5.10
2018-11-01T16:04:52.120Z,4.12
2018-11-01T16:07:21.230Z,5.10
2018-11-01T16:09:50.353Z,4.90
2018-11-01T16:12:19.414Z,5.67
2018-11-01T16:14:48.715Z,5.45
2018-11-01T16:17:17.917Z,6.50
2018-11-01T16:19:47.229Z,6.25
2018-11-01T16:22:16.288Z,6.75
2018-11-01T16:24:45.439Z,6.87
2018-11-01T16:27:14.731Z,7.17
2018-11-01T16:29:43.822Z,8.85
2018-11-01T16:32:12.985Z,9.23
2018-11-01T16:34:42.106Z,9.15
2018-11-01T16:37:11.416Z,8.45
2018-11-01T16:39:40.518Z,9.05
2018-11-01T16:42:09.671Z,6.80
2018-11-01T16:44:38.869Z,5.92
2018-11-01T16:47:08.127Z,6.50
2018-11-01T16:49:37.314Z,5.20
2018-11-01T16:52:06.614Z,6.42
2018-11-01T16:54:35.971Z,6.62
2018-11-01T16:57:05.323Z,7.05
2018-11-01T16:59:35.250Z,7.72
2018-11-01T17:02:04.723Z,9.70
2018-11-01T17:04:33.888Z,11.97
2018-11-01T17:07:02.969Z,11.80
2018-11-01T17:09:32.235Z,12.05
2018-11-01T17:12:01.337Z,11.65
2018-11-01T17:14:30.880Z,11.22
2018-11-01T17:17:00.163Z,10.15
2018-11-01T17:19:29.354Z,10.23
2018-11-01T17:21:58.896Z,10.93
2018-11-01T17:24:28.252Z,11.57
2018-11-01T17:26:57.776Z,11.57
2018-11-01T17:29:27.460Z,10.85
2018-11-01T17:31:56.674Z,8.38
2018-11-01T17:34:26.019Z,10.72
2018-11-01T17:36:55.568Z,10.43
2018-11-01T17:39:24.599Z,10.95
2018-11-01T17:41:53.762Z,11.00
2018-11-01T17:44:23.083Z,10.32
2018-11-01T17:46:52.130Z,9.50
2018-11-01T17:49:21.264Z,9.05
2018-11-01T17:51:52.299Z,10.13
2018-11-01T17:54:21.521Z,11.00
2018-11-01T17:56:50.827Z,9.40
2018-11-01T17:59:20.101Z,9.43
2018-11-01T18:01:49.390Z,9.80
2018-11-01T18:04:18.514Z,8.90
2018-11-01T18:06:47.774Z,9.63
2018-11-01T18:09:16.919Z,9.08
2018-11-01T18:11:46.215Z,8.40
2018-11-01T18:14:15.153Z,8.88
2018-11-01T18:16:44.385Z,9.28
2018-11-01T18:19:13.624Z,10.15
2018-11-01T18:21:42.817Z,11.25
2018-11-01T18:24:12.119Z,11.03
2018-11-01T18:26:41.428Z,10.30
2018-11-01T18:29:10.922Z,10.03
2018-11-01T18:31:39.971Z,11.00
2018-11-01T18:34:09.232Z,10.70
2018-11-01T18:36:38.320Z,10.75
2018-11-01T18:39:08.614Z,10.90
2018-11-01T18:41:37.959Z,11.50
2018-11-01T18:44:07.148Z,11.18
2018-11-01T18:46:36.402Z,12.40
2018-11-01T18:49:05.887Z,10.78
2018-11-01T18:51:35.243Z,12.75
2018-11-01T18:54:06.209Z,13.25
2018-11-01T18:56:35.323Z,13.70
2018-11-01T18:59:04.499Z,12.25
2018-11-01T19:01:33.795Z,12.60
2018-11-01T19:04:02.865Z,13.00
2018-11-01T19:06:32.109Z,11.70
2018-11-01T19:09:01.375Z,12.33
2018-11-01T19:11:30.596Z,13.60
2018-11-01T19:13:59.976Z,13.50
2018-11-01T19:16:28.902Z,12.40
2018-11-01T19:18:58.066Z,12.75
2018-11-01T19:21:26.988Z,11.08
2018-11-01T19:23:56.109Z,11.12
2018-11-01T19:26:25.307Z,12.45
2018-11-01T19:28:54.689Z,14.10
2018-11-01T19:31:23.748Z,14.50
2018-11-01T19:33:53.050Z,14.30
2018-11-01T19:36:22.159Z,14.85
2018-11-01T19:38:51.354Z,13.13
2018-11-01T19:41:20.554Z,13.35
2018-11-01T19:43:49.907Z,12.78
2018-11-01T19:46:19.114Z,11.40
2018-11-01T19:48:48.279Z,12.28
2018-11-01T19:51:17.459Z,11.85
2018-11-01T19:53:46.515Z,10.48
2018-11-01T19:56:15.780Z,9.18
2018-11-01T19:58:44.931Z,7.33
2018-11-01T20:01:14.269Z,6.78
2018-11-01T20:03:43.900Z,6.30
2018-11-01T20:06:12.992Z,5.90
2018-11-01T20:08:42.325Z,6.37
2018-11-01T20:11:11.459Z,4.80
2018-11-01T20:13:41.135Z,6.03
2018-11-01T20:16:11.480Z,6.62
2018-11-01T20:18:40.792Z,4.85
2018-11-01T20:21:10.326Z,6.95
2018-11-01T20:23:39.618Z,7.20
2018-11-01T20:26:08.894Z,6.70
2018-11-01T20:28:37.696Z,8.18
2018-11-01T20:31:07.291Z,7.65
2018-11-01T20:33:36.608Z,9.20
2018-11-01T20:36:05.716Z,8.90
2018-11-01T20:38:35.213Z,8.18
2018-11-01T20:41:04.263Z,9.58
2018-11-01T20:43:33.490Z,9.35
2018-11-01T20:46:03.235Z,9.35
2018-11-01T20:48:32.372Z,9.68
2018-11-01T20:51:01.405Z,9.38
2018-11-01T20:53:30.599Z,11.05
2018-11-01T20:56:00.186Z,12.13
2018-11-01T20:58:29.475Z,14.20
2018-11-01T21:00:58.435Z,14.33
2018-11-01T21:03:27.762Z,15.48
2018-11-01T21:05:57.037Z,16.02
2018-11-01T21:08:26.499Z,17.07
2018-11-01T21:10:55.966Z,21.30
2018-11-01T21:13:25.040Z,20.52
2018-11-01T21:15:54.267Z,22.85
2018-11-01T21:18:23.520Z,23.55
2018-11-01T21:20:52.693Z,25.80
2018-11-01T21:23:22.544Z,25.48
2018-11-01T21:25:51.642Z,24.65
2018-11-01T21:28:20.695Z,27.10
2018-11-01T21:30:49.904Z,28.45
2018-11-01T21:33:18.990Z,27.45
2018-11-01T21:35:48.793Z,28.40
2018-11-01T21:38:17.831Z,29.57
2018-11-01T21:40:47.008Z,33.90
2018-11-01T21:43:16.234Z,36.63
2018-11-01T21:45:45.130Z,36.28
2018-11-01T21:48:14.708Z,36.73
2018-11-01T21:50:43.827Z,35.13
2018-11-01T21:53:13.023Z,35.25
2018-11-01T21:55:42.231Z,34.83
2018-11-01T21:58:11.423Z,36.85
2018-11-01T22:00:40.466Z,37.10
2018-11-01T22:03:09.528Z,36.38
2018-11-01T22:05:38.723Z,37.33
2018-11-01T22:08:07.762Z,37.73
2018-11-01T22:10:36.834Z,36.05
2018-11-01T22:13:06.179Z,35.50
2018-11-01T22:15:35.314Z,37.08
2018-11-01T22:18:04.473Z,30.02
2018-11-01T22:20:33.614Z,37.80
2018-11-01T22:23:07.375Z,33.78
2018-11-01T22:25:36.682Z,33.40
2018-11-01T22:28:06.834Z,35.65
2018-11-01T22:30:35.594Z,33.95
2018-11-01T22:33:04.987Z,34.58
2018-11-01T22:35:34.223Z,37.75
2018-11-01T22:38:03.521Z,38.55
2018-11-01T22:40:32.906Z,38.70
2018-11-01T22:43:02.005Z,39.00
2018-11-01T22:45:30.955Z,37.95
2018-11-01T22:47:59.980Z,40.10
2018-11-01T22:50:29.043Z,39.27
2018-11-01T22:52:58.163Z,38.38
2018-11-01T22:55:27.537Z,37.90
2018-11-01T22:57:56.646Z,38.92
2018-11-01T23:00:25.811Z,40.55
2018-11-01T23:02:55.359Z,40.23
2018-11-01T23:05:24.442Z,40.45
2018-11-01T23:07:53.558Z,36.03
2018-11-01T23:10:22.956Z,37.00
2018-11-01T23:12:52.140Z,39.13
2018-11-01T23:15:21.405Z,37.03
2018-11-01T23:17:51.070Z,39.60
2018-11-01T23:20:20.230Z,39.50
2018-11-01T23:22:49.243Z,38.63
2018-11-01T23:25:18.550Z,40.30
2018-11-01T23:27:47.823Z,39.30
2018-11-01T23:30:16.979Z,40.45
2018-11-01T23:32:46.148Z,39.23
2018-11-01T23:35:15.135Z,40.12
2018-11-01T23:37:49.514Z,40.75
2018-11-01T23:40:23.739Z,38.38
2018-11-01T23:42:58.051Z,39.35
2018-11-01T23:45:32.330Z,38.98
2018-11-01T23:48:00.711Z,38.75
2018-11-01T23:50:42.111Z,38.28
2018-11-01T23:53:18.510Z,38.80
2018-11-01T23:55:47.921Z,40.90
2018-11-01T23:58:16.944Z,39.03
